sensor_id;sensor_type;location;lat;lon;timestamp;P1;durP1;ratioP1;P2;durP2;ratioP2
11598;SDS011;5855;48.840;9.188;2023-09-30T00:02:26;5.05;;;3.15;;
11598;SDS011;5855;48.840;9.188;2023-09-30T00:13:14;4.43;;;2.50;;
11598;SDS011;5855;48.840;9.188;2023-09-30T00:15:48;4.68;;;2.95;;
11598;SDS011;5855;48.840;9.188;2023-09-30T00:18:16;5.82;;;2.22;;
11598;SDS011;5855;48.840;9.188;2023-09-30T00:20:43;4.63;;;2.35;;
11598;SDS011;5855;48.840;9.188;2023-09-30T00:23:10;4.32;;;2.47;;
11598;SDS011;5855;48.840;9.188;2023-09-30T00:25:38;7.70;;;2.40;;
11598;SDS011;5855;48.840;9.188;2023-09-30T00:31:12;4.18;;;2.20;;
11598;SDS011;5855;48.840;9.188;2023-09-30T00:33:41;5.03;;;1.90;;
11598;SDS011;5855;48.840;9.188;2023-09-30T00:36:08;3.33;;;1.95;;
11598;SDS011;5855;48.840;9.188;2023-09-30T00:38:37;3.90;;;2.30;;
11598;SDS011;5855;48.840;9.188;2023-09-30T00:41:04;3.03;;;2.13;;
11598;SDS011;5855;48.840;9.188;2023-09-30T00:43:33;3.72;;;1.95;;
11598;SDS011;5855;48.840;9.188;2023-09-30T00:46:02;2.50;;;1.83;;
11598;SDS011;5855;48.840;9.188;2023-09-30T00:48:34;3.47;;;2.00;;
11598;SDS011;5855;48.840;9.188;2023-09-30T00:51:01;2.92;;;2.05;;
11598;SDS011;5855;48.840;9.188;2023-09-30T00:56:35;3.40;;;2.00;;
11598;SDS011;5855;48.840;9.188;2023-09-30T00:59:06;3.42;;;2.10;;
11598;SDS011;5855;48.840;9.188;2023-09-30T01:01:33;2.75;;;2.00;;
11598;SDS011;5855;48.840;9.188;2023-09-30T01:04:02;3.90;;;2.03;;
11598;SDS011;5855;48.840;9.188;2023-09-30T01:06:30;2.80;;;2.20;;
11598;SDS011;5855;48.840;9.188;2023-09-30T01:08:56;2.80;;;1.90;;
11598;SDS011;5855;48.840;9.188;2023-09-30T01:11:24;3.15;;;2.10;;
11598;SDS011;5855;48.840;9.188;2023-09-30T01:13:51;3.97;;;2.35;;
11598;SDS011;5855;48.840;9.188;2023-09-30T01:16:18;2.97;;;1.90;;
11598;SDS011;5855;48.840;9.188;2023-09-30T01:18:45;6.22;;;2.40;;
11598;SDS011;5855;48.840;9.188;2023-09-30T01:21:13;4.15;;;2.20;;
11598;SDS011;5855;48.840;9.188;2023-09-30T01:23:42;4.38;;;2.25;;
11598;SDS011;5855;48.840;9.188;2023-09-30T01:26:11;2.85;;;2.20;;
11598;SDS011;5855;48.840;9.188;2023-09-30T01:28:39;6.45;;;2.30;;
11598;SDS011;5855;48.840;9.188;2023-09-30T01:31:06;4.50;;;2.53;;
11598;SDS011;5855;48.840;9.188;2023-09-30T01:33:33;5.30;;;2.60;;
11598;SDS011;5855;48.840;9.188;2023-09-30T01:36:00;3.15;;;2.53;;
11598;SDS011;5855;48.840;9.188;2023-09-30T01:38:27;3.53;;;2.53;;
11598;SDS011;5855;48.840;9.188;2023-09-30T01:40:55;3.78;;;2.35;;
11598;SDS011;5855;48.840;9.188;2023-09-30T01:43:22;5.70;;;2.60;;
11598;SDS011;5855;48.840;9.188;2023-09-30T01:45:49;3.85;;;2.60;;
11598;SDS011;5855;48.840;9.188;2023-09-30T01:48:16;3.88;;;2.60;;
11598;SDS011;5855;48.840;9.188;2023-09-30T01:50:43;4.53;;;2.78;;
11598;SDS011;5855;48.840;9.188;2023-09-30T01:53:09;5.50;;;2.58;;
11598;SDS011;5855;48.840;9.188;2023-09-30T01:55:36;3.40;;;2.72;;
11598;SDS011;5855;48.840;9.188;2023-09-30T01:58:05;4.13;;;2.90;;
11598;SDS011;5855;48.840;9.188;2023-09-30T02:00:32;3.67;;;2.88;;
11598;SDS011;5855;48.840;9.188;2023-09-30T02:03:00;4.05;;;2.72;;
11598;SDS011;5855;48.840;9.188;2023-09-30T02:05:27;3.92;;;2.83;;
11598;SDS011;5855;48.840;9.188;2023-09-30T02:07:53;3.05;;;2.60;;
11598;SDS011;5855;48.840;9.188;2023-09-30T02:10:21;5.28;;;2.80;;
11598;SDS011;5855;48.840;9.188;2023-09-30T02:12:48;5.28;;;3.17;;
11598;SDS011;5855;48.840;9.188;2023-09-30T02:15:16;3.50;;;2.72;;
11598;SDS011;5855;48.840;9.188;2023-09-30T02:17:43;4.35;;;2.95;;
11598;SDS011;5855;48.840;9.188;2023-09-30T02:20:13;5.45;;;2.58;;
11598;SDS011;5855;48.840;9.188;2023-09-30T02:22:44;4.80;;;2.83;;
11598;SDS011;5855;48.840;9.188;2023-09-30T02:25:11;5.53;;;2.88;;
11598;SDS011;5855;48.840;9.188;2023-09-30T02:27:39;4.85;;;2.95;;
11598;SDS011;5855;48.840;9.188;2023-09-30T02:30:07;3.90;;;2.95;;
11598;SDS011;5855;48.840;9.188;2023-09-30T02:32:37;6.95;;;3.00;;
11598;SDS011;5855;48.840;9.188;2023-09-30T02:35:06;5.57;;;3.10;;
11598;SDS011;5855;48.840;9.188;2023-09-30T02:37:35;5.95;;;3.25;;
11598;SDS011;5855;48.840;9.188;2023-09-30T02:40:02;5.50;;;3.58;;
11598;SDS011;5855;48.840;9.188;2023-09-30T02:42:33;8.10;;;3.72;;
11598;SDS011;5855;48.840;9.188;2023-09-30T02:45:01;6.10;;;3.50;;
11598;SDS011;5855;48.840;9.188;2023-09-30T02:47:28;5.43;;;3.78;;
11598;SDS011;5855;48.840;9.188;2023-09-30T02:49:57;7.00;;;3.75;;
11598;SDS011;5855;48.840;9.188;2023-09-30T02:52:25;5.55;;;3.88;;
11598;SDS011;5855;48.840;9.188;2023-09-30T02:54:52;5.28;;;3.70;;
11598;SDS011;5855;48.840;9.188;2023-09-30T02:57:19;7.63;;;3.72;;
11598;SDS011;5855;48.840;9.188;2023-09-30T02:59:46;7.35;;;3.53;;
11598;SDS011;5855;48.840;9.188;2023-09-30T03:02:13;6.25;;;3.97;;
11598;SDS011;5855;48.840;9.188;2023-09-30T03:04:43;4.22;;;3.83;;
11598;SDS011;5855;48.840;9.188;2023-09-30T03:07:12;5.57;;;3.75;;
11598;SDS011;5855;48.840;9.188;2023-09-30T03:09:39;7.95;;;4.25;;
11598;SDS011;5855;48.840;9.188;2023-09-30T03:12:07;5.53;;;3.83;;
11598;SDS011;5855;48.840;9.188;2023-09-30T03:14:34;6.00;;;3.55;;
11598;SDS011;5855;48.840;9.188;2023-09-30T03:17:01;6.28;;;3.50;;
11598;SDS011;5855;48.840;9.188;2023-09-30T03:19:28;4.90;;;3.47;;
11598;SDS011;5855;48.840;9.188;2023-09-30T03:21:55;10.25;;;4.38;;
11598;SDS011;5855;48.840;9.188;2023-09-30T03:24:23;6.00;;;3.70;;
11598;SDS011;5855;48.840;9.188;2023-09-30T03:26:52;4.95;;;3.67;;
11598;SDS011;5855;48.840;9.188;2023-09-30T03:29:19;5.03;;;3.53;;
11598;SDS011;5855;48.840;9.188;2023-09-30T03:31:45;6.32;;;3.60;;
11598;SDS011;5855;48.840;9.188;2023-09-30T03:34:12;8.05;;;3.70;;
11598;SDS011;5855;48.840;9.188;2023-09-30T03:36:41;5.68;;;3.60;;
11598;SDS011;5855;48.840;9.188;2023-09-30T03:39:08;7.75;;;3.60;;
11598;SDS011;5855;48.840;9.188;2023-09-30T03:41:41;5.93;;;3.58;;
11598;SDS011;5855;48.840;9.188;2023-09-30T03:44:08;7.25;;;4.30;;
11598;SDS011;5855;48.840;9.188;2023-09-30T03:46:35;5.60;;;3.70;;
11598;SDS011;5855;48.840;9.188;2023-09-30T03:49:02;6.30;;;3.60;;
11598;SDS011;5855;48.840;9.188;2023-09-30T03:51:29;6.32;;;3.75;;
11598;SDS011;5855;48.840;9.188;2023-09-30T03:53:56;8.73;;;4.18;;
11598;SDS011;5855;48.840;9.188;2023-09-30T03:56:22;4.63;;;3.55;;
11598;SDS011;5855;48.840;9.188;2023-09-30T03:58:51;5.50;;;3.70;;
11598;SDS011;5855;48.840;9.188;2023-09-30T04:01:18;8.27;;;3.97;;
11598;SDS011;5855;48.840;9.188;2023-09-30T04:03:45;6.28;;;3.90;;
11598;SDS011;5855;48.840;9.188;2023-09-30T04:06:12;7.50;;;3.72;;
11598;SDS011;5855;48.840;9.188;2023-09-30T04:08:39;6.30;;;3.55;;
11598;SDS011;5855;48.840;9.188;2023-09-30T04:11:08;6.32;;;3.60;;
11598;SDS011;5855;48.840;9.188;2023-09-30T04:13:41;4.13;;;3.40;;
11598;SDS011;5855;48.840;9.188;2023-09-30T04:16:10;6.03;;;3.15;;
11598;SDS011;5855;48.840;9.188;2023-09-30T04:18:37;7.68;;;3.78;;
11598;SDS011;5855;48.840;9.188;2023-09-30T04:21:05;7.00;;;3.50;;
11598;SDS011;5855;48.840;9.188;2023-09-30T04:23:32;7.90;;;3.85;;
11598;SDS011;5855;48.840;9.188;2023-09-30T04:26:01;5.70;;;3.55;;
11598;SDS011;5855;48.840;9.188;2023-09-30T04:28:28;5.43;;;3.45;;
11598;SDS011;5855;48.840;9.188;2023-09-30T04:30:55;5.50;;;3.67;;
11598;SDS011;5855;48.840;9.188;2023-09-30T04:33:24;5.43;;;3.28;;
11598;SDS011;5855;48.840;9.188;2023-09-30T04:35:51;7.97;;;3.55;;
11598;SDS011;5855;48.840;9.188;2023-09-30T04:38:18;5.60;;;3.30;;
11598;SDS011;5855;48.840;9.188;2023-09-30T04:40:45;5.00;;;3.67;;
11598;SDS011;5855;48.840;9.188;2023-09-30T04:43:16;6.22;;;3.60;;
11598;SDS011;5855;48.840;9.188;2023-09-30T04:45:43;6.97;;;3.63;;
11598;SDS011;5855;48.840;9.188;2023-09-30T04:48:10;5.55;;;3.40;;
11598;SDS011;5855;48.840;9.188;2023-09-30T04:50:39;4.57;;;3.28;;
11598;SDS011;5855;48.840;9.188;2023-09-30T04:53:06;4.57;;;3.25;;
11598;SDS011;5855;48.840;9.188;2023-09-30T04:55:34;5.93;;;3.75;;
11598;SDS011;5855;48.840;9.188;2023-09-30T04:58:02;6.13;;;3.47;;
11598;SDS011;5855;48.840;9.188;2023-09-30T05:00:31;6.10;;;3.60;;
11598;SDS011;5855;48.840;9.188;2023-09-30T05:02:58;6.68;;;3.63;;
11598;SDS011;5855;48.840;9.188;2023-09-30T05:05:25;5.22;;;3.53;;
11598;SDS011;5855;48.840;9.188;2023-09-30T05:07:55;5.38;;;3.40;;
11598;SDS011;5855;48.840;9.188;2023-09-30T05:10:23;3.85;;;3.25;;
11598;SDS011;5855;48.840;9.188;2023-09-30T05:12:50;7.10;;;3.50;;
11598;SDS011;5855;48.840;9.188;2023-09-30T05:15:20;7.40;;;3.50;;
11598;SDS011;5855;48.840;9.188;2023-09-30T05:17:48;6.60;;;3.72;;
11598;SDS011;5855;48.840;9.188;2023-09-30T05:20:15;3.83;;;3.33;;
11598;SDS011;5855;48.840;9.188;2023-09-30T05:22:43;5.10;;;3.10;;
11598;SDS011;5855;48.840;9.188;2023-09-30T05:25:12;5.28;;;3.20;;
11598;SDS011;5855;48.840;9.188;2023-09-30T05:27:41;5.25;;;3.35;;
11598;SDS011;5855;48.840;9.188;2023-09-30T05:30:08;7.32;;;3.30;;
11598;SDS011;5855;48.840;9.188;2023-09-30T05:32:37;5.70;;;3.65;;
11598;SDS011;5855;48.840;9.188;2023-09-30T05:35:04;6.53;;;3.85;;
11598;SDS011;5855;48.840;9.188;2023-09-30T05:37:37;5.63;;;3.60;;
11598;SDS011;5855;48.840;9.188;2023-09-30T05:40:06;5.38;;;3.20;;
11598;SDS011;5855;48.840;9.188;2023-09-30T05:42:43;6.32;;;3.83;;
11598;SDS011;5855;48.840;9.188;2023-09-30T05:45:10;7.07;;;3.55;;
11598;SDS011;5855;48.840;9.188;2023-09-30T05:47:40;5.10;;;3.33;;
11598;SDS011;5855;48.840;9.188;2023-09-30T05:50:09;5.43;;;2.90;;
11598;SDS011;5855;48.840;9.188;2023-09-30T05:52:39;4.60;;;3.17;;
11598;SDS011;5855;48.840;9.188;2023-09-30T05:55:06;7.05;;;3.75;;
11598;SDS011;5855;48.840;9.188;2023-09-30T05:57:34;8.00;;;3.90;;
11598;SDS011;5855;48.840;9.188;2023-09-30T06:00:03;6.55;;;3.90;;
11598;SDS011;5855;48.840;9.188;2023-09-30T06:02:52;5.50;;;3.72;;
11598;SDS011;5855;48.840;9.188;2023-09-30T06:05:20;6.53;;;3.92;;
11598;SDS011;5855;48.840;9.188;2023-09-30T06:07:48;5.55;;;3.50;;
11598;SDS011;5855;48.840;9.188;2023-09-30T06:10:15;9.25;;;3.72;;
11598;SDS011;5855;48.840;9.188;2023-09-30T06:12:43;6.85;;;3.95;;
11598;SDS011;5855;48.840;9.188;2023-09-30T06:15:13;6.78;;;3.80;;
11598;SDS011;5855;48.840;9.188;2023-09-30T06:17:41;7.72;;;3.67;;
11598;SDS011;5855;48.840;9.188;2023-09-30T06:20:14;5.07;;;3.28;;
11598;SDS011;5855;48.840;9.188;2023-09-30T06:22:55;5.63;;;3.40;;
11598;SDS011;5855;48.840;9.188;2023-09-30T06:25:22;6.18;;;3.30;;
11598;SDS011;5855;48.840;9.188;2023-09-30T06:27:49;6.30;;;3.58;;
11598;SDS011;5855;48.840;9.188;2023-09-30T06:30:18;5.97;;;4.03;;
11598;SDS011;5855;48.840;9.188;2023-09-30T06:32:46;5.22;;;3.63;;
11598;SDS011;5855;48.840;9.188;2023-09-30T06:35:27;6.95;;;3.78;;
11598;SDS011;5855;48.840;9.188;2023-09-30T06:38:10;6.93;;;3.90;;
11598;SDS011;5855;48.840;9.188;2023-09-30T06:40:44;7.80;;;3.97;;
11598;SDS011;5855;48.840;9.188;2023-09-30T06:43:17;6.07;;;3.85;;
11598;SDS011;5855;48.840;9.188;2023-09-30T06:45:46;6.63;;;3.85;;
11598;SDS011;5855;48.840;9.188;2023-09-30T06:48:14;5.97;;;3.72;;
11598;SDS011;5855;48.840;9.188;2023-09-30T06:50:43;7.30;;;3.90;;
11598;SDS011;5855;48.840;9.188;2023-09-30T06:53:13;5.40;;;3.88;;
11598;SDS011;5855;48.840;9.188;2023-09-30T06:55:40;7.32;;;3.30;;
11598;SDS011;5855;48.840;9.188;2023-09-30T06:58:08;11.85;;;3.90;;
11598;SDS011;5855;48.840;9.188;2023-09-30T07:00:35;7.85;;;3.90;;
11598;SDS011;5855;48.840;9.188;2023-09-30T07:03:04;6.75;;;3.67;;
11598;SDS011;5855;48.840;9.188;2023-09-30T07:05:31;5.22;;;3.58;;
11598;SDS011;5855;48.840;9.188;2023-09-30T07:07:58;5.18;;;3.55;;
11598;SDS011;5855;48.840;9.188;2023-09-30T07:10:25;7.05;;;4.53;;
11598;SDS011;5855;48.840;9.188;2023-09-30T07:12:52;6.53;;;3.58;;
11598;SDS011;5855;48.840;9.188;2023-09-30T07:15:19;6.20;;;3.72;;
11598;SDS011;5855;48.840;9.188;2023-09-30T07:17:46;7.72;;;4.22;;
11598;SDS011;5855;48.840;9.188;2023-09-30T07:20:15;7.05;;;3.58;;
11598;SDS011;5855;48.840;9.188;2023-09-30T07:22:42;8.73;;;3.95;;
11598;SDS011;5855;48.840;9.188;2023-09-30T07:25:09;6.82;;;4.22;;
11598;SDS011;5855;48.840;9.188;2023-09-30T07:27:36;6.78;;;4.57;;
11598;SDS011;5855;48.840;9.188;2023-09-30T07:30:04;7.68;;;3.90;;
11598;SDS011;5855;48.840;9.188;2023-09-30T07:32:34;6.75;;;3.80;;
11598;SDS011;5855;48.840;9.188;2023-09-30T07:35:01;7.60;;;4.03;;
11598;SDS011;5855;48.840;9.188;2023-09-30T07:37:29;8.85;;;4.07;;
11598;SDS011;5855;48.840;9.188;2023-09-30T07:39:56;7.63;;;3.67;;
11598;SDS011;5855;48.840;9.188;2023-09-30T07:42:23;7.60;;;3.75;;
11598;SDS011;5855;48.840;9.188;2023-09-30T07:44:50;7.13;;;4.00;;
11598;SDS011;5855;48.840;9.188;2023-09-30T07:50:53;9.40;;;4.18;;
11598;SDS011;5855;48.840;9.188;2023-09-30T07:56:59;6.97;;;4.10;;
11598;SDS011;5855;48.840;9.188;2023-09-30T07:59:26;6.85;;;3.85;;
11598;SDS011;5855;48.840;9.188;2023-09-30T08:01:54;6.85;;;3.85;;
11598;SDS011;5855;48.840;9.188;2023-09-30T08:04:28;7.80;;;3.60;;
11598;SDS011;5855;48.840;9.188;2023-09-30T08:07:08;8.25;;;3.55;;
11598;SDS011;5855;48.840;9.188;2023-09-30T08:10:00;7.43;;;3.30;;
11598;SDS011;5855;48.840;9.188;2023-09-30T08:12:33;8.10;;;3.65;;
11598;SDS011;5855;48.840;9.188;2023-09-30T08:25:58;4.93;;;3.30;;
11598;SDS011;5855;48.840;9.188;2023-09-30T08:28:43;6.18;;;3.40;;
11598;SDS011;5855;48.840;9.188;2023-09-30T08:31:13;5.60;;;3.10;;
11598;SDS011;5855;48.840;9.188;2023-09-30T08:47:28;5.82;;;3.22;;
11598;SDS011;5855;48.840;9.188;2023-09-30T09:01:06;4.65;;;3.00;;
11598;SDS011;5855;48.840;9.188;2023-09-30T09:03:37;5.03;;;3.33;;
11598;SDS011;5855;48.840;9.188;2023-09-30T09:06:05;6.30;;;3.30;;
11598;SDS011;5855;48.840;9.188;2023-09-30T09:08:32;5.22;;;3.17;;
11598;SDS011;5855;48.840;9.188;2023-09-30T09:10:59;7.60;;;3.60;;
11598;SDS011;5855;48.840;9.188;2023-09-30T09:13:29;7.38;;;2.97;;
11598;SDS011;5855;48.840;9.188;2023-09-30T09:16:14;6.15;;;3.10;;
11598;SDS011;5855;48.840;9.188;2023-09-30T09:18:43;5.80;;;3.30;;
11598;SDS011;5855;48.840;9.188;2023-09-30T09:21:12;4.82;;;3.20;;
11598;SDS011;5855;48.840;9.188;2023-09-30T09:23:40;7.68;;;3.63;;
11598;SDS011;5855;48.840;9.188;2023-09-30T09:26:10;4.93;;;2.88;;
11598;SDS011;5855;48.840;9.188;2023-09-30T09:28:39;6.45;;;3.45;;
11598;SDS011;5855;48.840;9.188;2023-09-30T09:33:51;5.57;;;2.90;;
11598;SDS011;5855;48.840;9.188;2023-09-30T09:36:18;5.35;;;3.28;;
11598;SDS011;5855;48.840;9.188;2023-09-30T09:38:48;6.80;;;3.10;;
11598;SDS011;5855;48.840;9.188;2023-09-30T09:41:18;7.57;;;3.15;;
11598;SDS011;5855;48.840;9.188;2023-09-30T09:43:47;6.20;;;3.40;;
11598;SDS011;5855;48.840;9.188;2023-09-30T09:46:16;6.07;;;3.50;;
11598;SDS011;5855;48.840;9.188;2023-09-30T09:48:44;6.07;;;3.70;;
11598;SDS011;5855;48.840;9.188;2023-09-30T09:51:14;7.07;;;3.60;;
11598;SDS011;5855;48.840;9.188;2023-09-30T09:53:47;8.23;;;3.47;;
11598;SDS011;5855;48.840;9.188;2023-09-30T09:56:16;5.15;;;3.00;;
11598;SDS011;5855;48.840;9.188;2023-09-30T09:58:45;7.53;;;3.53;;
11598;SDS011;5855;48.840;9.188;2023-09-30T10:01:15;7.45;;;3.72;;
11598;SDS011;5855;48.840;9.188;2023-09-30T10:03:41;7.93;;;3.40;;
11598;SDS011;5855;48.840;9.188;2023-09-30T10:06:09;6.25;;;3.40;;
11598;SDS011;5855;48.840;9.188;2023-09-30T10:08:38;5.30;;;3.20;;
11598;SDS011;5855;48.840;9.188;2023-09-30T10:11:07;5.28;;;3.00;;
11598;SDS011;5855;48.840;9.188;2023-09-30T10:13:54;7.03;;;3.42;;
11598;SDS011;5855;48.840;9.188;2023-09-30T10:19:17;6.53;;;3.20;;
11598;SDS011;5855;48.840;9.188;2023-09-30T10:24:51;4.90;;;3.40;;
11598;SDS011;5855;48.840;9.188;2023-09-30T10:27:31;4.78;;;3.25;;
11598;SDS011;5855;48.840;9.188;2023-09-30T10:30:05;7.65;;;3.42;;
11598;SDS011;5855;48.840;9.188;2023-09-30T10:35:42;6.63;;;3.90;;
11598;SDS011;5855;48.840;9.188;2023-09-30T10:41:08;5.28;;;3.35;;
11598;SDS011;5855;48.840;9.188;2023-09-30T10:43:37;6.43;;;3.45;;
11598;SDS011;5855;48.840;9.188;2023-09-30T10:46:29;5.70;;;3.45;;
11598;SDS011;5855;48.840;9.188;2023-09-30T10:51:42;7.68;;;3.53;;
11598;SDS011;5855;48.840;9.188;2023-09-30T10:54:10;8.63;;;4.10;;
11598;SDS011;5855;48.840;9.188;2023-09-30T10:56:40;8.13;;;4.20;;
11598;SDS011;5855;48.840;9.188;2023-09-30T10:59:07;5.72;;;4.10;;
11598;SDS011;5855;48.840;9.188;2023-09-30T11:01:34;5.88;;;3.70;;
11598;SDS011;5855;48.840;9.188;2023-09-30T11:04:02;7.20;;;4.25;;
11598;SDS011;5855;48.840;9.188;2023-09-30T11:06:30;6.68;;;3.95;;
11598;SDS011;5855;48.840;9.188;2023-09-30T11:08:58;5.45;;;3.72;;
11598;SDS011;5855;48.840;9.188;2023-09-30T11:11:33;5.95;;;3.78;;
11598;SDS011;5855;48.840;9.188;2023-09-30T11:14:02;7.05;;;4.05;;
11598;SDS011;5855;48.840;9.188;2023-09-30T11:16:39;5.35;;;3.80;;
11598;SDS011;5855;48.840;9.188;2023-09-30T11:19:07;6.30;;;3.72;;
11598;SDS011;5855;48.840;9.188;2023-09-30T11:21:34;6.38;;;3.83;;
11598;SDS011;5855;48.840;9.188;2023-09-30T11:24:01;5.65;;;3.72;;
11598;SDS011;5855;48.840;9.188;2023-09-30T11:26:29;8.70;;;3.80;;
11598;SDS011;5855;48.840;9.188;2023-09-30T11:29:05;6.65;;;3.50;;
11598;SDS011;5855;48.840;9.188;2023-09-30T11:31:33;4.55;;;3.30;;
11598;SDS011;5855;48.840;9.188;2023-09-30T11:34:03;5.07;;;3.55;;
11598;SDS011;5855;48.840;9.188;2023-09-30T11:36:33;6.72;;;3.90;;
11598;SDS011;5855;48.840;9.188;2023-09-30T11:39:00;5.75;;;3.58;;
11598;SDS011;5855;48.840;9.188;2023-09-30T11:41:32;5.32;;;3.47;;
11598;SDS011;5855;48.840;9.188;2023-09-30T11:44:03;6.47;;;3.88;;
11598;SDS011;5855;48.840;9.188;2023-09-30T11:46:46;5.85;;;3.53;;
11598;SDS011;5855;48.840;9.188;2023-09-30T11:49:24;6.30;;;4.10;;
11598;SDS011;5855;48.840;9.188;2023-09-30T11:51:55;5.07;;;3.67;;
11598;SDS011;5855;48.840;9.188;2023-09-30T11:54:28;5.45;;;3.90;;
11598;SDS011;5855;48.840;9.188;2023-09-30T11:56:57;6.88;;;4.20;;
11598;SDS011;5855;48.840;9.188;2023-09-30T11:59:25;7.00;;;4.35;;
11598;SDS011;5855;48.840;9.188;2023-09-30T12:01:52;5.60;;;3.65;;
11598;SDS011;5855;48.840;9.188;2023-09-30T12:04:19;7.45;;;4.25;;
11598;SDS011;5855;48.840;9.188;2023-09-30T12:06:47;7.00;;;4.10;;
11598;SDS011;5855;48.840;9.188;2023-09-30T12:09:14;5.60;;;4.03;;
11598;SDS011;5855;48.840;9.188;2023-09-30T12:11:47;6.75;;;4.15;;
11598;SDS011;5855;48.840;9.188;2023-09-30T12:14:14;6.57;;;4.25;;
11598;SDS011;5855;48.840;9.188;2023-09-30T12:16:42;5.90;;;4.00;;
11598;SDS011;5855;48.840;9.188;2023-09-30T12:19:10;6.47;;;3.92;;
11598;SDS011;5855;48.840;9.188;2023-09-30T12:21:38;6.70;;;4.13;;
11598;SDS011;5855;48.840;9.188;2023-09-30T12:24:06;7.68;;;4.65;;
11598;SDS011;5855;48.840;9.188;2023-09-30T12:26:34;7.18;;;4.38;;
11598;SDS011;5855;48.840;9.188;2023-09-30T12:29:01;6.45;;;4.50;;
11598;SDS011;5855;48.840;9.188;2023-09-30T12:31:28;8.60;;;4.78;;
11598;SDS011;5855;48.840;9.188;2023-09-30T12:33:56;8.50;;;5.15;;
11598;SDS011;5855;48.840;9.188;2023-09-30T12:36:25;8.35;;;5.97;;
11598;SDS011;5855;48.840;9.188;2023-09-30T12:38:51;9.48;;;6.60;;
11598;SDS011;5855;48.840;9.188;2023-09-30T12:41:18;7.85;;;4.90;;
11598;SDS011;5855;48.840;9.188;2023-09-30T12:43:46;8.02;;;5.75;;
11598;SDS011;5855;48.840;9.188;2023-09-30T12:46:13;11.07;;;8.00;;
11598;SDS011;5855;48.840;9.188;2023-09-30T12:48:39;7.60;;;5.28;;
11598;SDS011;5855;48.840;9.188;2023-09-30T12:51:08;9.20;;;5.55;;
11598;SDS011;5855;48.840;9.188;2023-09-30T12:53:35;7.28;;;5.22;;
11598;SDS011;5855;48.840;9.188;2023-09-30T12:56:02;9.13;;;4.80;;
11598;SDS011;5855;48.840;9.188;2023-09-30T12:58:29;8.02;;;5.07;;
11598;SDS011;5855;48.840;9.188;2023-09-30T13:00:56;7.55;;;5.30;;
11598;SDS011;5855;48.840;9.188;2023-09-30T13:03:23;7.82;;;5.10;;
11598;SDS011;5855;48.840;9.188;2023-09-30T13:05:50;7.32;;;4.63;;
11598;SDS011;5855;48.840;9.188;2023-09-30T13:08:18;7.32;;;4.63;;
11598;SDS011;5855;48.840;9.188;2023-09-30T13:10:45;6.18;;;4.32;;
11598;SDS011;5855;48.840;9.188;2023-09-30T13:13:15;7.18;;;4.55;;
11598;SDS011;5855;48.840;9.188;2023-09-30T13:15:42;6.55;;;4.10;;
11598;SDS011;5855;48.840;9.188;2023-09-30T13:18:09;6.57;;;4.60;;
11598;SDS011;5855;48.840;9.188;2023-09-30T13:20:37;7.20;;;4.65;;
11598;SDS011;5855;48.840;9.188;2023-09-30T13:23:04;7.22;;;4.28;;
11598;SDS011;5855;48.840;9.188;2023-09-30T13:25:32;6.05;;;4.45;;
11598;SDS011;5855;48.840;9.188;2023-09-30T13:27:59;6.65;;;4.65;;
11598;SDS011;5855;48.840;9.188;2023-09-30T13:30:26;7.13;;;4.07;;
11598;SDS011;5855;48.840;9.188;2023-09-30T13:32:53;8.00;;;4.43;;
11598;SDS011;5855;48.840;9.188;2023-09-30T13:35:21;7.00;;;4.40;;
11598;SDS011;5855;48.840;9.188;2023-09-30T13:37:47;6.25;;;4.22;;
11598;SDS011;5855;48.840;9.188;2023-09-30T13:40:14;7.28;;;4.38;;
11598;SDS011;5855;48.840;9.188;2023-09-30T13:42:43;6.70;;;4.60;;
11598;SDS011;5855;48.840;9.188;2023-09-30T13:45:11;6.75;;;4.82;;
11598;SDS011;5855;48.840;9.188;2023-09-30T13:47:38;7.05;;;4.47;;
11598;SDS011;5855;48.840;9.188;2023-09-30T13:50:08;6.70;;;4.72;;
11598;SDS011;5855;48.840;9.188;2023-09-30T13:52:35;6.57;;;4.57;;
11598;SDS011;5855;48.840;9.188;2023-09-30T13:55:03;6.10;;;4.72;;
11598;SDS011;5855;48.840;9.188;2023-09-30T13:57:30;6.18;;;4.63;;
11598;SDS011;5855;48.840;9.188;2023-09-30T13:59:58;7.63;;;4.97;;
11598;SDS011;5855;48.840;9.188;2023-09-30T14:02:25;5.55;;;4.50;;
11598;SDS011;5855;48.840;9.188;2023-09-30T14:04:52;6.82;;;5.03;;
11598;SDS011;5855;48.840;9.188;2023-09-30T14:07:19;6.93;;;4.00;;
11598;SDS011;5855;48.840;9.188;2023-09-30T14:09:46;5.60;;;4.15;;
11598;SDS011;5855;48.840;9.188;2023-09-30T14:12:13;5.82;;;4.38;;
11598;SDS011;5855;48.840;9.188;2023-09-30T14:14:39;5.50;;;4.20;;
11598;SDS011;5855;48.840;9.188;2023-09-30T14:17:08;7.22;;;4.78;;
11598;SDS011;5855;48.840;9.188;2023-09-30T14:19:36;7.03;;;4.70;;
11598;SDS011;5855;48.840;9.188;2023-09-30T14:22:04;8.52;;;4.50;;
11598;SDS011;5855;48.840;9.188;2023-09-30T14:24:31;5.28;;;3.97;;
11598;SDS011;5855;48.840;9.188;2023-09-30T14:26:59;6.10;;;4.32;;
11598;SDS011;5855;48.840;9.188;2023-09-30T14:29:26;5.95;;;4.15;;
11598;SDS011;5855;48.840;9.188;2023-09-30T14:31:53;6.78;;;4.32;;
11598;SDS011;5855;48.840;9.188;2023-09-30T14:34:21;7.50;;;4.93;;
11598;SDS011;5855;48.840;9.188;2023-09-30T14:36:49;7.63;;;4.65;;
11598;SDS011;5855;48.840;9.188;2023-09-30T14:39:16;6.35;;;4.38;;
11598;SDS011;5855;48.840;9.188;2023-09-30T14:41:43;6.82;;;4.50;;
11598;SDS011;5855;48.840;9.188;2023-09-30T14:44:10;8.55;;;4.57;;
11598;SDS011;5855;48.840;9.188;2023-09-30T14:46:37;5.75;;;4.50;;
11598;SDS011;5855;48.840;9.188;2023-09-30T14:49:04;5.82;;;4.30;;
11598;SDS011;5855;48.840;9.188;2023-09-30T14:51:33;6.22;;;4.32;;
11598;SDS011;5855;48.840;9.188;2023-09-30T14:54:03;7.35;;;5.10;;
11598;SDS011;5855;48.840;9.188;2023-09-30T14:56:30;6.45;;;4.22;;
11598;SDS011;5855;48.840;9.188;2023-09-30T14:58:57;7.45;;;4.35;;
11598;SDS011;5855;48.840;9.188;2023-09-30T15:01:24;6.45;;;4.63;;
11598;SDS011;5855;48.840;9.188;2023-09-30T15:03:59;6.53;;;4.82;;
11598;SDS011;5855;48.840;9.188;2023-09-30T15:06:26;6.68;;;4.72;;
11598;SDS011;5855;48.840;9.188;2023-09-30T15:08:55;7.72;;;5.20;;
11598;SDS011;5855;48.840;9.188;2023-09-30T15:11:21;9.02;;;5.13;;
11598;SDS011;5855;48.840;9.188;2023-09-30T15:13:48;7.22;;;5.03;;
11598;SDS011;5855;48.840;9.188;2023-09-30T15:16:16;6.78;;;4.88;;
11598;SDS011;5855;48.840;9.188;2023-09-30T15:18:44;6.47;;;4.72;;
11598;SDS011;5855;48.840;9.188;2023-09-30T15:21:11;7.50;;;4.78;;
11598;SDS011;5855;48.840;9.188;2023-09-30T15:23:39;7.25;;;4.70;;
11598;SDS011;5855;48.840;9.188;2023-09-30T15:26:07;7.82;;;4.75;;
11598;SDS011;5855;48.840;9.188;2023-09-30T15:28:35;8.88;;;5.25;;
11598;SDS011;5855;48.840;9.188;2023-09-30T15:31:03;7.25;;;5.28;;
11598;SDS011;5855;48.840;9.188;2023-09-30T15:33:30;9.07;;;5.88;;
11598;SDS011;5855;48.840;9.188;2023-09-30T15:35:57;9.60;;;5.20;;
11598;SDS011;5855;48.840;9.188;2023-09-30T15:38:24;11.68;;;6.20;;
11598;SDS011;5855;48.840;9.188;2023-09-30T15:40:53;9.10;;;5.47;;
11598;SDS011;5855;48.840;9.188;2023-09-30T15:43:24;9.95;;;5.28;;
11598;SDS011;5855;48.840;9.188;2023-09-30T15:45:51;6.75;;;5.10;;
11598;SDS011;5855;48.840;9.188;2023-09-30T15:48:18;7.60;;;5.20;;
11598;SDS011;5855;48.840;9.188;2023-09-30T15:50:45;7.25;;;4.93;;
11598;SDS011;5855;48.840;9.188;2023-09-30T15:53:12;7.20;;;5.00;;
11598;SDS011;5855;48.840;9.188;2023-09-30T15:55:40;10.30;;;6.43;;
11598;SDS011;5855;48.840;9.188;2023-09-30T15:58:06;9.65;;;5.55;;
11598;SDS011;5855;48.840;9.188;2023-09-30T16:00:36;9.15;;;5.40;;
11598;SDS011;5855;48.840;9.188;2023-09-30T16:03:03;7.40;;;5.43;;
11598;SDS011;5855;48.840;9.188;2023-09-30T16:05:31;8.00;;;4.72;;
11598;SDS011;5855;48.840;9.188;2023-09-30T16:07:58;9.02;;;5.00;;
11598;SDS011;5855;48.840;9.188;2023-09-30T16:10:25;8.95;;;5.60;;
11598;SDS011;5855;48.840;9.188;2023-09-30T16:12:52;8.20;;;5.25;;
11598;SDS011;5855;48.840;9.188;2023-09-30T16:15:19;8.43;;;5.35;;
11598;SDS011;5855;48.840;9.188;2023-09-30T16:17:47;7.55;;;5.25;;
11598;SDS011;5855;48.840;9.188;2023-09-30T16:20:14;7.25;;;5.22;;
11598;SDS011;5855;48.840;9.188;2023-09-30T16:22:41;8.98;;;5.53;;
11598;SDS011;5855;48.840;9.188;2023-09-30T16:25:08;8.57;;;5.22;;